You are not logged in, Click here to log in
長崎空港NGS / RJFU 日本長崎縣大村市
ICAO: RJFU Country: 日本長崎縣大村市
Latitude: 32.9136 Longitude: 129.918
Total Arrivals: 13 Total Departures: 12
Latest Arrival: FS9041 (RKSS-RJFU)Arthur. Kung Latest Departure: MM178 (RJFU-RJBB)Arthur. Kung
Scenery:
METAR : RJFU 240600Z 31016KT 9999 FEW035 18/08 Q1016

長崎空港NGS

You are accessing this site from IP address 34.201.9.19. Virtual Airline. CMS by phpVMS.Website designed by Zumeweb and edited by Theo Bearman.
There is 0 User(s) Online: | and 13 Guest(s) Online.
All information on this site is for fight simulation purposes only. This site is for flight logging for pilots of Virtual Airline&模擬飛行論壇 FlySim only.